Time,TemperatureF,DewpointF,PressureIn,WindDirection,WindDirectionDegrees,WindSpeedMPH,WindSpeedGustMPH,Humidity,HourlyPrecipIn,Conditions,Clouds,dailyrainin,SoftwareType,DateUTC
2013-05-21 00:00:00,45.0,-99.9,-100.00,North,-999,-999.0,-999.0,-999,-99.99,,,-99.99,,2013-05-21 07:00:00,
2013-05-21 00:52:00,45.0,-99.9,-100.00,North,-999,-999.0,-999.0,-999,-99.99,,,-99.99,,2013-05-21 07:52:00,
2013-05-21 01:00:00,44.0,-99.9,-100.00,SW,219,3.0,7.0,-999,-99.99,,,0.00,,2013-05-21 08:00:00,
2013-05-21 01:52:00,44.0,-99.9,-100.00,SW,219,3.0,7.0,-999,-99.99,,,0.00,,2013-05-21 08:52:00,
2013-05-21 02:00:00,43.0,-99.9,-100.00,SE,128,3.0,5.0,-999,-99.99,,,0.00,,2013-05-21 09:00:00,
2013-05-21 02:53:00,43.0,-99.9,-100.00,SE,128,3.0,5.0,-999,-99.99,,,0.00,,2013-05-21 09:53:00,
2013-05-21 03:00:00,42.0,-99.9,-100.00,SSE,163,4.0,6.0,-999,-99.99,,,0.00,,2013-05-21 10:00:00,
2013-05-21 04:00:00,42.0,-99.9,-100.00,SSE,163,5.0,7.0,-999,-99.99,,,0.00,,2013-05-21 11:00:00,
2013-05-21 05:00:00,41.0,-99.9,-100.00,SSE,165,5.0,9.0,-999,-99.99,,,0.00,,2013-05-21 12:00:00,
2013-05-21 06:00:00,40.0,-99.9,-100.00,SSW,199,5.0,9.0,-999,-99.99,,,0.00,,2013-05-21 13:00:00,
2013-05-21 09:00:00,40.0,-99.9,-100.00,WSW,239,7.0,11.0,-999,-99.99,,,0.00,,2013-05-21 16:00:00,
2013-05-21 10:00:00,41.0,-99.9,-100.00,WSW,255,8.0,13.0,-999,-99.99,,,0.00,,2013-05-21 17:00:00,
2013-05-21 10:53:00,41.0,-99.9,-100.00,WSW,255,8.0,13.0,-999,-99.99,,,0.00,,2013-05-21 17:53:00,
2013-05-21 11:00:00,40.0,-99.9,-100.00,South,191,8.0,13.0,-999,-99.99,,,0.01,,2013-05-21 18:00:00,
2013-05-21 11:52:00,40.0,-99.9,-100.00,South,191,8.0,13.0,-999,-99.99,,,0.01,,2013-05-21 18:52:00,
2013-05-21 12:00:00,39.0,-99.9,-100.00,SSW,200,7.0,11.0,-999,-99.99,,,0.00,,2013-05-21 19:00:00,
2013-05-21 12:52:00,39.0,-99.9,-100.00,SSW,200,7.0,11.0,-999,-99.99,,,0.00,,2013-05-21 19:52:00,
2013-05-21 13:00:00,38.0,-99.9,-100.00,SSW,208,7.0,11.0,-999,-99.99,,,0.01,,2013-05-21 20:00:00,
2013-05-21 13:52:00,38.0,-99.9,-100.00,SSW,208,7.0,11.0,-999,-99.99,,,0.01,,2013-05-21 20:52:00,
2013-05-21 14:00:00,41.0,-99.9,-100.00,SSW,205,7.0,12.0,-999,-99.99,,,0.00,,2013-05-21 21:00:00,
2013-05-21 14:54:00,41.0,-99.9,-100.00,SSW,205,7.0,12.0,-999,-99.99,,,0.00,,2013-05-21 21:54:00,
2013-05-21 15:00:00,34.0,-99.9,-100.00,WSW,255,6.0,9.0,-999,-99.99,,,0.02,,2013-05-21 22:00:00,
2013-05-21 15:53:00,34.0,-99.9,-100.00,WSW,255,6.0,9.0,-999,-99.99,,,0.02,,2013-05-21 22:53:00,
2013-05-21 16:00:00,32.0,-99.9,-100.00,WNW,284,6.0,9.0,-999,-99.99,,,0.02,,2013-05-21 23:00:00,
2013-05-21 16:52:00,32.0,-99.9,-100.00,WNW,284,6.0,9.0,-999,-99.99,,,0.02,,2013-05-21 23:52:00,
2013-05-21 17:00:00,30.0,-99.9,-100.00,North,8,5.0,10.0,-999,-99.99,,,0.02,,2013-05-22 00:00:00,
2013-05-21 17:52:00,30.0,-99.9,-100.00,North,8,5.0,10.0,-999,-99.99,,,0.02,,2013-05-22 00:52:00,
2013-05-21 18:00:00,-999.0,-99.9,-100.00,SW,222,5.0,9.0,-999,-99.99,,,-99.99,,2013-05-22 01:00:00,
2013-05-21 18:52:00,-999.0,-99.9,-100.00,SW,222,5.0,9.0,-999,-99.99,,,-99.99,,2013-05-22 01:52:00,
2013-05-21 19:00:00,28.0,-99.9,-100.00,SW,226,5.0,11.0,-999,-99.99,,,0.02,,2013-05-22 02:00:00,
2013-05-21 19:52:00,28.0,-99.9,-100.00,SW,226,5.0,11.0,-999,-99.99,,,0.02,,2013-05-22 02:52:00,
2013-05-21 20:00:00,25.0,-99.9,-100.00,North,351,4.0,9.0,-999,-99.99,,,0.02,,2013-05-22 03:00:00,
2013-05-21 20:53:00,25.0,-99.9,-100.00,North,351,4.0,9.0,-999,-99.99,,,0.02,,2013-05-22 03:53:00,
2013-05-21 21:00:00,24.0,-99.9,-100.00,West,261,4.0,9.0,-999,-99.99,,,0.02,,2013-05-22 04:00:00,
2013-05-21 21:53:00,24.0,-99.9,-100.00,West,261,4.0,9.0,-999,-99.99,,,0.02,,2013-05-22 04:53:00,
2013-05-21 22:00:00,23.0,-99.9,-100.00,North,349,4.0,8.0,-999,-99.99,,,0.02,,2013-05-22 05:00:00,
2013-05-21 22:52:00,23.0,-99.9,-100.00,North,349,4.0,8.0,-999,-99.99,,,0.02,,2013-05-22 05:52:00,
2013-05-21 23:00:00,22.0,-99.9,-100.00,North,-999,-999.0,-999.0,-999,-99.99,,,0.02,,2013-05-22 06:00:00,
2013-05-21 23:52:00,22.0,-99.9,-100.00,North,-999,-999.0,-999.0,-999,-99.99,,,0.02,,2013-05-22 06:52:00,